Hovedside
METAR-TAF:

METAR-TAF

Lufthavner :

Kosrae, Mikronesia

breddegrad: 05-21N, lengdegrad: 162-57E, høyde over havet: 3 m

Gjeldene værobservasjon

Denne rapporten ble laget for 31 minutter siden, klokken 01:50 UTC
Vind 6 kt fra Nordøst
Temperatur 31°C
Luftfuktighet 66%
Trykk 1006 hPa
Sikt: 16.1 km
Spredte skyer i en høyde av 2200 ft
Brutte skyer i en høyde av 13000 ft
Overskyet i en høyde av 30000 ft

METAR: PTSA 220150Z 05006KT 10SM SCT022 BKN130 OVC300 31/24 A2971

Tid: 13:21 (02:21 UTC)

Varsel

Denne rapporten ble laget for 3 timer og 0 minutter siden, klokken 23:21 UTC
Varsel gyldig fra 22. klokken 00 UTC til 22. klokken 24 UTC
Vind 8 kt fra Øst
Sikt: 10 km
Spredte skyer i en høyde av 1900 ft
Spredte skyer i en høyde av 13000 ft

TAF: PTSA 212321Z 2200/2224 08008KT P6SM SCT019 SCT130

Værobservasjoner og værvarsel for over 4000 flyplasser (METAR- og TAF-rapporter).

Tilgjengelige stasjoner er representert av de røde og gule prikkene på kartet.

Hold musepekeren over prikken for å se navnet på stasjonen.

Klikk så for å se værobservasjoner og -varsler.

For å forandre kartet kan du klikke på den grønne knappen med svart kryss for å zoome inn, på den grønne knappen med strek for å zoome ut, eller på de grønne pilene for å se tilstøtende kart.


METAR-TAF: